Time;durP1;ratioP1;P1;durP2;ratioP2;P2;SDS_P1;SDS_P2;PMS_P1;PMS_P2;Temp;Humidity;BMP_temperature;BMP_pressure;BME280_temperature;BME280_humidity;BME280_pressure;Samples;Min_cycle;Max_cycle;Signal;HPM_P1;HPM_P2
2023/06/20 00:00:37;;;;;;;2.45;1.90;;;17.70;99.90;;;;;;5091399;28;20018;-75
2023/06/20 00:03:03;;;;;;;2.70;2.10;;;17.60;99.90;;;;;;5106697;28;20406;-75
2023/06/20 00:05:28;;;;;;;;;;;17.60;99.90;;;;;;5096620;28;20047;-75
2023/06/20 00:07:54;;;;;;;2.08;1.85;;;17.60;99.90;;;;;;5097481;28;19916;-75
2023/06/20 00:10:20;;;;;;;2.25;1.55;;;17.60;99.90;;;;;;5111770;27;20090;-75
2023/06/20 00:12:47;;;;;;;1.60;1.40;;;17.60;99.90;;;;;;5095931;28;20048;-75
2023/06/20 00:15:12;;;;;;;2.15;1.50;;;17.50;99.90;;;;;;5099309;28;20040;-75
2023/06/20 00:17:38;;;;;;;;;;;17.50;99.90;;;;;;5070573;28;20043;-75
2023/06/20 00:20:06;;;;;;;1.90;1.70;;;17.50;99.90;;;;;;5097545;28;19920;-75
2023/06/20 00:22:34;;;;;;;1.65;1.40;;;17.40;99.90;;;;;;5097263;28;20036;-75
2023/06/20 00:25:04;;;;;;;1.85;1.40;;;17.40;99.90;;;;;;5095328;28;20075;-75
2023/06/20 00:27:30;;;;;;;1.50;1.38;;;17.40;99.90;;;;;;5094740;28;20387;-75
2023/06/20 00:29:56;;;;;;;;;;;17.30;99.90;;;;;;5093728;28;20039;-75
2023/06/20 00:32:21;;;;;;;1.70;1.50;;;17.30;99.90;;;;;;5090968;28;19928;-75
2023/06/20 00:34:47;;;;;;;;;;;17.20;99.90;;;;;;5077457;28;20147;-75
2023/06/20 00:37:12;;;;;;;1.83;1.40;;;17.20;99.90;;;;;;5095664;28;20061;-75
2023/06/20 00:39:38;;;;;;;;;;;17.20;99.90;;;;;;5098058;28;20063;-75
2023/06/20 00:42:05;;;;;;;1.83;1.48;;;17.10;99.90;;;;;;5108986;28;19920;-75
2023/06/20 00:44:30;;;;;;;2.40;1.88;;;17.10;99.90;;;;;;5100171;28;20046;-75
2023/06/20 00:46:56;;;;;;;;;;;17.20;99.90;;;;;;5090956;28;20043;-75
2023/06/20 00:49:22;;;;;;;3.85;3.20;;;17.20;99.90;;;;;;5070925;28;19923;-75
2023/06/20 00:51:50;;;;;;;3.22;2.70;;;17.20;99.90;;;;;;5083571;27;20087;-75
2023/06/20 00:54:16;;;;;;;3.13;2.63;;;17.20;99.90;;;;;;5116478;27;20392;-75
2023/06/20 00:56:44;;;;;;;3.53;2.80;;;17.20;99.90;;;;;;5113578;27;20034;-75
2023/06/20 00:59:10;;;;;;;3.10;2.58;;;17.30;99.90;;;;;;5115404;27;20039;-75
2023/06/20 01:01:37;;;;;;;;;;;17.30;99.90;;;;;;5128039;27;20043;-75
2023/06/20 01:04:04;;;;;;;3.22;2.50;;;17.30;99.90;;;;;;5114037;27;19915;-75
2023/06/20 01:06:42;;;;;;;3.33;2.55;;;17.30;99.90;;;;;;5112955;27;20043;-75
2023/06/20 01:09:23;;;;;;;2.70;2.20;;;17.30;99.90;;;;;;5113100;27;20566;-75
2023/06/20 01:12:04;;;;;;;1.90;1.70;;;17.30;99.90;;;;;;5111854;27;20043;-75
2023/06/20 01:14:45;;;;;;;2.40;2.20;;;17.30;99.90;;;;;;5094424;27;20091;-75
2023/06/20 01:17:20;;;;;;;2.67;2.20;;;17.30;99.90;;;;;;5110893;27;20063;-75
2023/06/20 01:19:53;;;;;;;2.65;2.20;;;17.30;99.90;;;;;;5137637;27;20126;-75
2023/06/20 01:22:34;;;;;;;2.70;1.90;;;17.30;99.90;;;;;;5113267;27;20039;-76
2023/06/20 01:25:05;;;;;;;2.60;2.30;;;17.30;99.90;;;;;;5142936;27;20043;-75
2023/06/20 01:27:38;;;;;;;2.72;2.00;;;17.30;99.90;;;;;;5109428;27;20038;-75
2023/06/20 01:30:12;;;;;;;2.22;2.03;;;17.30;99.90;;;;;;5112831;27;20076;-75
2023/06/20 01:32:45;;;;;;;3.40;2.42;;;17.30;99.90;;;;;;5114404;27;20047;-75
2023/06/20 01:35:20;;;;;;;3.10;2.63;;;17.30;99.90;;;;;;5096032;27;20047;-75
2023/06/20 01:37:51;;;;;;;3.05;2.45;;;17.20;99.90;;;;;;5114547;27;20489;-75
2023/06/20 01:40:20;;;;;;;2.83;2.50;;;17.20;99.90;;;;;;5097707;27;20134;-75
2023/06/20 01:42:47;;;;;;;3.17;2.40;;;17.20;99.90;;;;;;5097038;27;20097;-75
2023/06/20 01:45:19;;;;;;;3.17;2.83;;;17.20;99.90;;;;;;5096351;27;20478;-75
2023/06/20 01:47:49;;;;;;;3.33;2.90;;;17.20;99.90;;;;;;5114296;27;20477;-75
2023/06/20 01:50:16;;;;;;;4.18;2.50;;;17.20;99.90;;;;;;5138174;27;20046;-75
2023/06/20 01:52:44;;;;;;;2.58;2.30;;;17.20;99.90;;;;;;5113824;27;20054;-75
2023/06/20 01:55:11;;;;;;;2.38;1.98;;;17.20;99.90;;;;;;5132390;27;20047;-75
2023/06/20 01:57:39;;;;;;;2.08;1.83;;;17.20;99.90;;;;;;5097080;27;20046;-75
2023/06/20 02:00:08;;;;;;;2.28;1.83;;;17.20;99.90;;;;;;5094697;27;20502;-75
2023/06/20 02:02:34;;;;;;;2.30;2.00;;;17.10;99.90;;;;;;5112110;27;20492;-75
2023/06/20 02:05:01;;;;;;;3.05;2.30;;;17.10;99.90;;;;;;5113973;27;20397;-75
2023/06/20 02:07:28;;;;;;;2.67;2.30;;;17.10;99.90;;;;;;5113901;27;20484;-75
2023/06/20 02:09:54;;;;;;;2.50;2.17;;;17.20;99.90;;;;;;5137800;27;20046;-75
2023/06/20 02:12:21;;;;;;;2.90;2.33;;;17.10;99.90;;;;;;5113938;27;20037;-75
2023/06/20 02:14:47;;;;;;;;;;;17.10;99.90;;;;;;5114086;27;20039;-75
2023/06/20 02:17:14;;;;;;;3.00;2.13;;;17.10;99.90;;;;;;5112751;27;19919;-75
2023/06/20 02:19:40;;;;;;;2.30;1.70;;;17.10;99.90;;;;;;5138447;27;20039;-75
2023/06/20 02:22:07;;;;;;;;;;;17.10;99.90;;;;;;5113891;27;20043;-75
2023/06/20 02:24:34;;;;;;;2.95;2.20;;;17.10;99.90;;;;;;5096243;27;19959;-75
2023/06/20 02:27:01;;;;;;;3.10;2.25;;;17.10;99.90;;;;;;5113334;27;20049;-75
2023/06/20 02:29:33;;;;;;;2.38;1.95;;;17.10;99.90;;;;;;5112992;27;20035;-75
2023/06/20 02:32:01;;;;;;;2.95;1.90;;;17.20;99.90;;;;;;5129996;27;20082;-75
2023/06/20 02:34:28;;;;;;;2.25;2.05;;;17.20;99.90;;;;;;5113133;27;20447;-75
2023/06/20 02:36:57;;;;;;;2.28;1.77;;;17.20;99.90;;;;;;5112537;27;20037;-75
2023/06/20 02:39:24;;;;;;;3.38;2.30;;;17.20;99.90;;;;;;5113017;27;20035;-75
2023/06/20 02:41:49;;;;;;;;;;;17.20;99.90;;;;;;5113866;27;20070;-75
2023/06/20 02:44:15;;;;;;;2.53;2.33;;;17.20;99.90;;;;;;5112980;27;20318;-75
2023/06/20 02:46:49;;;;;;;;;;;17.20;99.90;;;;;;5096270;27;20035;-75
2023/06/20 02:49:56;;;;;;;2.38;2.00;;;17.20;99.90;;;;;;5134280;27;19919;-75
2023/06/20 02:52:25;;;;;;;3.83;2.72;;;17.20;99.90;;;;;;5111462;27;20055;-75
2023/06/20 02:55:14;;;;;;;3.05;2.40;;;17.20;99.90;;;;;;5112960;27;20386;-75
2023/06/20 02:57:53;;;;;;;3.20;2.30;;;17.20;99.90;;;;;;5111474;27;20082;-75
2023/06/20 03:00:19;;;;;;;3.08;2.30;;;17.20;99.90;;;;;;5095954;27;20404;-75
2023/06/20 03:03:47;;;;;;;3.13;2.45;;;17.20;99.90;;;;;;5112599;27;20045;-75
2023/06/20 03:06:14;;;;;;;4.55;2.85;;;17.20;99.90;;;;;;5007070;28;20049;-75
2023/06/20 03:08:44;;;;;;;2.50;2.22;;;17.20;99.90;;;;;;5108221;27;20055;-75
2023/06/20 03:11:10;;;;;;;2.85;2.55;;;17.20;99.90;;;;;;5111076;27;20058;-75
2023/06/20 03:13:35;;;;;;;;;;;17.20;99.90;;;;;;5146850;27;20035;-76
2023/06/20 03:16:01;;;;;;;4.38;3.58;;;17.10;99.90;;;;;;5093528;27;20307;-75
2023/06/20 03:18:29;;;;;;;3.78;3.38;;;17.10;99.90;;;;;;5138048;27;20126;-76
2023/06/20 03:20:55;;;;;;;4.22;3.35;;;17.20;99.90;;;;;;5092164;27;20494;-75
2023/06/20 03:23:21;;;;;;;4.15;3.22;;;17.20;99.90;;;;;;5094591;27;20042;-76
2023/06/20 03:25:46;;;;;;;;;;;17.10;99.90;;;;;;5146127;27;20095;-76
2023/06/20 03:28:12;;;;;;;4.03;3.25;;;17.10;99.90;;;;;;5111563;27;19919;-76
2023/06/20 03:30:38;;;;;;;3.13;2.60;;;17.20;99.90;;;;;;5094934;27;20474;-76
2023/06/20 03:33:04;;;;;;;;;;;17.10;99.90;;;;;;5096155;27;20099;-76
2023/06/20 03:35:29;;;;;;;3.33;3.03;;;17.20;99.90;;;;;;5111607;27;19915;-76
2023/06/20 03:37:55;;;;;;;4.35;3.50;;;17.10;99.90;;;;;;5111519;27;20050;-75
2023/06/20 03:40:21;;;;;;;4.97;3.97;;;17.20;99.90;;;;;;5144483;27;20031;-76
2023/06/20 03:42:46;;;;;;;;;;;17.20;99.90;;;;;;5095533;27;20067;-76
2023/06/20 03:45:12;;;;;;;4.22;3.70;;;17.20;99.90;;;;;;5105415;28;19919;-75
2023/06/20 03:47:38;;;;;;;3.75;3.33;;;17.20;99.90;;;;;;5111689;27;20075;-76
2023/06/20 03:50:04;;;;;;;;;;;17.20;99.90;;;;;;5112370;28;20047;-76
2023/06/20 03:52:29;;;;;;;4.55;3.85;;;17.20;99.90;;;;;;5111647;28;20038;-75
2023/06/20 03:54:55;;;;;;;4.22;3.20;;;17.20;99.90;;;;;;5095108;28;20142;-76
2023/06/20 03:57:20;;;;;;;3.55;3.25;;;17.20;99.90;;;;;;5094891;28;20039;-76
2023/06/20 03:59:46;;;;;;;3.33;2.80;;;17.20;99.90;;;;;;5095150;28;20046;-76
2023/06/20 04:02:12;;;;;;;3.85;3.13;;;17.20;99.90;;;;;;5092457;28;20038;-76
2023/06/20 04:04:38;;;;;;;3.30;3.00;;;17.20;99.90;;;;;;5094685;28;20039;-82
2023/06/20 04:07:04;;;;;;;;;;;17.30;99.90;;;;;;5110195;27;20053;-77
2023/06/20 04:09:30;;;;;;;3.03;2.65;;;17.30;99.90;;;;;;5115111;27;20041;-77
2023/06/20 04:11:55;;;;;;;3.33;2.58;;;17.30;89.70;;;;;;5112399;27;20047;-75
2023/06/20 04:14:21;;;;;;;3.42;2.90;;;17.40;56.50;;;;;;5135359;27;20033;-75
2023/06/20 04:16:49;;;;;;;;;;;17.40;1.00;;;;;;5104434;27;20041;-75
2023/06/20 04:19:16;;;;;;;2.65;2.30;;;17.40;1.00;;;;;;5112021;27;19923;-75
2023/06/20 04:21:42;;;;;;;2.88;2.30;;;17.50;1.00;;;;;;5112174;28;20046;-76
2023/06/20 04:24:08;;;;;;;;;;;17.50;1.00;;;;;;5095148;28;20402;-74
2023/06/20 04:26:36;;;;;;;4.10;3.05;;;17.60;99.90;;;;;;5111811;28;19919;-73
2023/06/20 04:29:02;;;;;;;3.72;2.72;;;17.60;99.90;;;;;;5136915;27;20043;-76
2023/06/20 04:31:29;;;;;;;;;;;17.60;99.90;;;;;;5111943;28;20061;-77
2023/06/20 04:33:56;;;;;;;;;;;17.70;99.90;;;;;;5111399;28;20002;-77
2023/06/20 04:36:23;;;;;;;3.00;2.70;;;17.70;99.90;;;;;;5108058;28;20003;-75
2023/06/20 04:38:49;;;;;;;3.78;3.00;;;17.80;99.90;;;;;;5092383;28;20027;-75
2023/06/20 04:41:14;;;;;;;;;;;17.80;99.90;;;;;;5099598;27;20149;-76
2023/06/20 04:43:44;;;;;;;4.05;3.25;;;17.80;99.90;;;;;;5112458;27;20312;-76
2023/06/20 04:46:12;;;;;;;4.03;3.00;;;17.90;99.90;;;;;;5141730;27;20123;-76
2023/06/20 04:48:38;;;;;;;3.78;2.85;;;17.90;99.90;;;;;;5098284;27;20039;-76
2023/06/20 04:51:07;;;;;;;;;;;18.00;99.90;;;;;;5099115;27;20443;-76
2023/06/20 04:53:34;;;;;;;2.90;2.60;;;18.00;99.90;;;;;;5136820;27;19924;-76
2023/06/20 04:55:59;;;;;;;3.35;2.90;;;18.10;88.20;;;;;;5115172;27;20046;-76
2023/06/20 04:58:28;;;;;;;;;;;18.10;3.90;;;;;;5140601;27;20031;-75
2023/06/20 05:01:00;;;;;;;4.32;3.20;;;18.10;1.00;;;;;;5114885;27;19994;-76
2023/06/20 05:03:26;;;;;;;3.75;2.85;;;18.20;1.00;;;;;;5090887;27;20042;-76
2023/06/20 05:05:52;;;;;;;2.90;2.55;;;18.20;1.00;;;;;;5111093;27;20045;-76
2023/06/20 05:08:18;;;;;;;;;;;18.20;99.90;;;;;;5112197;27;20047;-76
2023/06/20 05:10:44;;;;;;;4.20;3.55;;;18.20;99.90;;;;;;5112290;27;20285;-77
2023/06/20 05:13:10;;;;;;;3.95;3.00;;;18.20;99.90;;;;;;5109644;27;20127;-77
2023/06/20 05:15:35;;;;;;;3.78;3.08;;;18.20;99.90;;;;;;5109950;27;20097;-78
2023/06/20 05:18:01;;;;;;;;;;;18.20;99.90;;;;;;5114317;27;20038;-78
2023/06/20 05:20:27;;;;;;;3.33;2.88;;;18.20;99.90;;;;;;5110425;27;20006;-78
2023/06/20 05:22:53;;;;;;;3.10;2.72;;;18.30;99.90;;;;;;5112945;27;20053;-78
2023/06/20 05:25:18;;;;;;;;;;;18.30;99.90;;;;;;5077183;27;20382;-77
2023/06/20 05:27:46;;;;;;;3.45;3.15;;;18.30;99.90;;;;;;5138261;27;20449;-77
2023/06/20 05:30:11;;;;;;;3.88;3.10;;;18.40;99.90;;;;;;5110710;27;20046;-77
2023/06/20 05:32:37;;;;;;;;;;;18.40;99.90;;;;;;5134750;27;20504;-77
2023/06/20 05:35:05;;;;;;;3.38;3.00;;;18.50;99.90;;;;;;5096613;27;19926;-77
2023/06/20 05:37:31;;;;;;;3.78;3.30;;;18.50;99.90;;;;;;5093502;27;20043;-77
2023/06/20 05:39:56;;;;;;;;;;;18.50;53.50;;;;;;5115590;27;20498;-78
2023/06/20 05:42:22;;;;;;;3.58;3.03;;;18.60;69.80;;;;;;5112870;27;19967;-77
2023/06/20 05:44:48;;;;;;;;;;;18.60;37.40;;;;;;5114586;27;20049;-77
2023/06/20 05:47:17;;;;;;;3.72;2.85;;;18.70;60.50;;;;;;5096676;27;19920;-77
2023/06/20 05:49:47;;;;;;;3.53;2.97;;;18.70;44.00;;;;;;5131697;27;20121;-77
2023/06/20 05:52:13;;;;;;;3.50;2.85;;;18.70;1.00;;;;;;5112882;27;20100;-78
2023/06/20 05:54:41;;;;;;;4.90;3.42;;;18.80;1.00;;;;;;5113479;27;20051;-77
2023/06/20 05:57:07;;;;;;;4.18;3.42;;;18.80;1.00;;;;;;5124366;27;20469;-78
2023/06/20 05:59:33;;;;;;;;;;;18.80;1.00;;;;;;5096297;27;20038;-75
2023/06/20 06:01:58;;;;;;;4.70;3.45;;;18.80;1.00;;;;;;5132641;27;19915;-76
2023/06/20 06:04:25;;;;;;;;;;;18.80;1.00;;;;;;5111305;27;20043;-76
2023/06/20 06:06:51;;;;;;;4.78;3.50;;;18.80;1.20;;;;;;5112669;27;19966;-76
2023/06/20 06:09:17;;;;;;;3.53;3.10;;;18.80;48.80;;;;;;5095857;27;20043;-76
2023/06/20 06:11:43;;;;;;;;;;;18.80;99.90;;;;;;5097157;27;20065;-76
2023/06/20 06:14:09;;;;;;;3.15;2.50;;;18.80;99.90;;;;;;5113435;27;19926;-76
2023/06/20 06:16:35;;;;;;;;;;;18.90;99.90;;;;;;5097238;27;20132;-75
2023/06/20 06:19:00;;;;;;;4.30;3.53;;;18.90;99.90;;;;;;5079649;27;20365;-75
2023/06/20 06:21:26;;;;;;;;;;;18.90;99.90;;;;;;5114181;27;20466;-75
2023/06/20 06:23:53;;;;;;;4.53;3.67;;;18.90;99.90;;;;;;5113199;27;19919;-76
2023/06/20 06:26:18;;;;;;;3.55;3.10;;;18.90;99.90;;;;;;5112930;27;20371;-75
2023/06/20 06:28:44;;;;;;;;;;;18.90;99.90;;;;;;5095025;27;20050;-76
2023/06/20 06:31:13;;;;;;;4.05;3.40;;;19.00;99.90;;;;;;5105726;27;19935;-76
2023/06/20 06:33:40;;;;;;;3.15;2.70;;;19.10;99.90;;;;;;5107491;27;20039;-76
2023/06/20 06:36:08;;;;;;;3.47;3.03;;;19.20;99.90;;;;;;5108678;27;20046;-77
2023/06/20 06:38:33;;;;;;;3.58;2.90;;;19.20;99.90;;;;;;5089158;27;20035;-76
2023/06/20 06:40:59;;;;;;;;;;;19.30;99.90;;;;;;5112380;27;20106;-76
2023/06/20 06:43:25;;;;;;;3.22;2.60;;;19.40;99.90;;;;;;5135309;27;19920;-76
2023/06/20 06:45:52;;;;;;;3.78;2.60;;;19.40;99.90;;;;;;5095730;27;20530;-76
2023/06/20 06:48:17;;;;;;;3.95;3.10;;;19.50;99.90;;;;;;5119089;27;20496;-76
2023/06/20 06:50:43;;;;;;;;;;;19.60;99.90;;;;;;5117759;27;20038;-76
2023/06/20 06:53:10;;;;;;;4.28;2.88;;;19.70;91.80;;;;;;5112628;27;19924;-76
2023/06/20 06:55:36;;;;;;;2.50;2.30;;;19.80;59.20;;;;;;5113003;27;20034;-76
2023/06/20 06:58:01;;;;;;;;;;;19.90;58.10;;;;;;5079252;27;20058;-76
2023/06/20 07:00:27;;;;;;;3.97;3.10;;;19.90;1.00;;;;;;5111149;27;20002;-76
2023/06/20 07:02:53;;;;;;;;;;;20.00;1.00;;;;;;5141336;27;20043;-76
2023/06/20 07:05:19;;;;;;;4.53;3.92;;;20.10;99.90;;;;;;5090175;27;19919;-76
2023/06/20 07:07:45;;;;;;;4.18;3.75;;;20.10;99.90;;;;;;5113220;27;20043;-76
2023/06/20 07:10:10;;;;;;;;;;;20.20;99.90;;;;;;5093203;27;20398;-76
2023/06/20 07:12:36;;;;;;;4.53;3.58;;;20.30;99.90;;;;;;5109361;27;20014;-76
2023/06/20 07:15:02;;;;;;;5.97;4.28;;;20.40;99.90;;;;;;5107246;27;20039;-75
2023/06/20 07:17:28;;;;;;;5.05;4.55;;;20.50;99.90;;;;;;5109496;27;20050;-76
2023/06/20 07:19:53;;;;;;;3.67;3.33;;;20.60;99.90;;;;;;5106078;27;20039;-75
2023/06/20 07:22:20;;;;;;;5.57;3.42;;;20.70;99.90;;;;;;5110629;27;20042;-75
2023/06/20 07:24:46;;;;;;;3.40;3.10;;;20.90;99.90;;;;;;5071098;27;20406;-75
2023/06/20 07:27:11;;;;;;;3.42;3.10;;;21.00;92.00;;;;;;5090744;27;20039;-75
2023/06/20 07:29:37;;;;;;;4.18;3.78;;;21.10;62.60;;;;;;5076817;27;20050;-75
2023/06/20 07:32:03;;;;;;;5.32;4.43;;;21.20;1.00;;;;;;5111179;27;20046;-74
2023/06/20 07:34:29;;;;;;;3.95;3.50;;;21.10;1.00;;;;;;5110971;27;20133;-75
2023/06/20 07:36:56;;;;;;;3.35;2.97;;;21.20;1.00;;;;;;5138444;27;20114;-75
2023/06/20 07:39:21;;;;;;;4.03;3.15;;;21.30;21.60;;;;;;5111159;27;20031;-75
2023/06/20 07:41:47;;;;;;;5.38;3.78;;;21.30;22.80;;;;;;5093626;27;20046;-75
2023/06/20 07:44:13;;;;;;;6.32;4.32;;;21.30;1.00;;;;;;5091957;27;20043;-75
2023/06/20 07:46:39;;;;;;;6.43;4.38;;;21.40;1.00;;;;;;5093802;28;20047;-75
2023/06/20 07:49:06;;;;;;;4.68;4.22;;;21.50;1.00;;;;;;5111404;28;20390;-75
2023/06/20 07:51:33;;;;;;;3.45;3.15;;;21.50;1.00;;;;;;5111618;27;20054;-75
2023/06/20 07:54:03;;;;;;;4.43;3.75;;;21.70;1.00;;;;;;5108786;28;20066;-75
2023/06/20 07:56:28;;;;;;;4.28;3.50;;;21.80;1.00;;;;;;5111618;28;20054;-76
2023/06/20 07:58:54;;;;;;;5.45;3.90;;;22.00;99.90;;;;;;5110133;28;20031;-76
2023/06/20 08:01:20;;;;;;;3.95;3.20;;;22.10;99.90;;;;;;5134526;27;20140;-75
2023/06/20 08:03:46;;;;;;;4.07;3.58;;;22.20;99.90;;;;;;5112000;27;20545;-75
2023/06/20 08:06:12;;;;;;;4.55;3.42;;;22.40;99.90;;;;;;5112128;28;20058;-75
2023/06/20 08:08:38;;;;;;;3.22;2.92;;;22.60;99.90;;;;;;5111012;27;20049;-75
2023/06/20 08:11:04;;;;;;;4.55;3.45;;;22.70;99.90;;;;;;5111674;27;20374;-75
2023/06/20 08:13:30;;;;;;;5.45;3.92;;;22.80;99.90;;;;;;5127173;27;20117;-75
2023/06/20 08:15:57;;;;;;;6.30;3.85;;;23.00;99.90;;;;;;5095940;27;20436;-75
2023/06/20 08:18:22;;;;;;;3.60;2.97;;;23.10;99.90;;;;;;5115049;27;20043;-76
2023/06/20 08:20:48;;;;;;;5.88;4.18;;;23.20;99.90;;;;;;5115035;27;20035;-77
2023/06/20 08:23:22;;;;;;;4.30;3.88;;;23.30;37.50;;;;;;5083413;27;20054;-77
2023/06/20 08:25:47;;;;;;;3.60;3.25;;;23.50;1.00;;;;;;5113978;27;20482;-76
2023/06/20 08:28:13;;;;;;;4.40;4.00;;;23.50;6.90;;;;;;5097466;27;20039;-76
2023/06/20 08:30:39;;;;;;;4.80;4.40;;;23.70;1.00;;;;;;5114170;27;20047;-76
2023/06/20 08:33:04;;;;;;;4.97;4.20;;;23.60;1.00;;;;;;5113116;27;20062;-77
2023/06/20 08:35:30;;;;;;;3.65;3.35;;;23.60;1.00;;;;;;5138941;27;20035;-77
2023/06/20 08:37:56;;;;;;;4.20;3.80;;;23.50;1.00;;;;;;5142803;27;20074;-76
2023/06/20 08:40:21;;;;;;;5.20;4.30;;;23.40;1.00;;;;;;5140066;27;20038;-77
2023/06/20 08:42:47;;;;;;;4.55;3.92;;;23.40;1.00;;;;;;5080328;27;20039;-76
2023/06/20 08:45:15;;;;;;;4.68;4.28;;;23.30;1.00;;;;;;5141572;27;20052;-77
2023/06/20 08:47:41;;;;;;;5.20;4.70;;;23.20;58.50;;;;;;5097204;27;20115;-76
2023/06/20 08:50:08;;;;;;;5.18;4.35;;;23.10;67.60;;;;;;5078406;27;20043;-76
2023/06/20 08:52:49;;;;;;;5.40;4.20;;;23.10;99.90;;;;;;5115341;27;20452;-76
2023/06/20 08:55:15;;;;;;;4.07;3.67;;;23.00;99.90;;;;;;5095335;27;20043;-76
2023/06/20 08:57:43;;;;;;;4.68;4.18;;;23.10;99.90;;;;;;5100383;27;20043;-76
2023/06/20 09:00:11;;;;;;;4.57;3.80;;;23.00;99.90;;;;;;5120384;27;20550;-77
2023/06/20 09:02:36;;;;;;;3.67;3.38;;;23.00;99.90;;;;;;5113000;27;20100;-76
2023/06/20 09:05:06;;;;;;;4.47;3.58;;;23.10;99.90;;;;;;5097881;27;20035;-76
2023/06/20 09:07:37;;;;;;;4.18;3.60;;;23.30;99.90;;;;;;5115152;27;20039;-77
2023/06/20 09:10:04;;;;;;;4.30;3.90;;;23.50;90.10;;;;;;5114113;27;20035;-76
2023/06/20 09:12:51;;;;;;;4.05;3.65;;;23.50;90.30;;;;;;5120687;27;20698;-76
2023/06/20 09:15:21;;;;;;;;;;;23.60;39.50;;;;;;5096275;27;20070;-77
2023/06/20 09:17:51;;;;;;;3.63;3.33;;;23.80;27.40;;;;;;5113960;27;20302;-76
2023/06/20 09:20:17;;;;;;;4.10;3.47;;;24.00;8.70;;;;;;5112759;27;20031;-76
2023/06/20 09:22:43;;;;;;;4.25;3.85;;;24.10;1.00;;;;;;5114297;27;20554;-76
2023/06/20 09:25:10;;;;;;;5.93;4.75;;;24.20;1.00;;;;;;5113156;27;20070;-76
2023/06/20 09:27:41;;;;;;;4.60;4.20;;;24.20;1.00;;;;;;5111901;27;20043;-76
2023/06/20 09:30:08;;;;;;;3.92;3.20;;;24.10;1.00;;;;;;5114285;27;20039;-76
2023/06/20 09:32:40;;;;;;;4.05;3.55;;;24.30;35.20;;;;;;5112675;27;20047;-76
2023/06/20 09:35:08;;;;;;;4.25;3.55;;;24.50;1.00;;;;;;5114261;27;20126;-77
2023/06/20 09:37:45;;;;;;;2.88;2.58;;;24.60;99.90;;;;;;5114388;27;20047;-77
2023/06/20 09:40:21;;;;;;;3.45;3.15;;;24.80;1.00;;;;;;5114424;27;20397;-76
2023/06/20 09:42:47;;;;;;;3.05;2.80;;;24.90;99.90;;;;;;5130128;27;20039;-76
2023/06/20 09:45:15;;;;;;;3.20;2.90;;;25.00;99.90;;;;;;5113969;27;20087;-76
2023/06/20 09:47:42;;;;;;;3.58;3.10;;;25.10;99.90;;;;;;5109366;27;20730;-76
2023/06/20 09:50:13;;;;;;;3.50;2.88;;;25.10;99.90;;;;;;5114057;27;20370;-76
2023/06/20 09:53:12;;;;;;;3.05;2.75;;;25.30;99.90;;;;;;5100899;28;20048;-76
2023/06/20 09:55:39;;;;;;;5.15;3.75;;;25.60;99.90;;;;;;5096260;28;20037;-76
2023/06/20 09:58:05;;;;;;;4.05;3.17;;;26.00;99.90;;;;;;5089374;28;20052;-76
2023/06/20 10:00:32;;;;;;;3.17;2.88;;;26.30;99.90;;;;;;5072802;28;20032;-76
2023/06/20 10:03:00;;;;;;;4.05;3.33;;;26.60;99.90;;;;;;5053593;28;20576;-76
2023/06/20 10:05:28;;;;;;;4.63;3.67;;;26.70;1.00;;;;;;5052561;28;20051;-76
2023/06/20 10:08:00;;;;;;;3.22;2.83;;;26.70;13.00;;;;;;5090073;28;20040;-76
2023/06/20 10:10:26;;;;;;;3.53;2.70;;;26.90;1.00;;;;;;5087464;28;20036;-76
2023/06/20 10:12:53;;;;;;;2.92;2.63;;;27.00;1.00;;;;;;5089767;28;20040;-76
2023/06/20 10:15:20;;;;;;;3.05;2.80;;;27.20;1.00;;;;;;5067707;28;20048;-76
2023/06/20 10:17:47;;;;;;;3.15;2.70;;;27.30;1.00;;;;;;5055209;28;20040;-76
2023/06/20 10:20:33;;;;;;;2.92;2.63;;;27.20;1.00;;;;;;5071266;28;20124;-76
2023/06/20 10:23:07;;;;;;;;;;;27.20;1.00;;;;;;5114597;27;20119;-76
2023/06/20 10:25:34;;;;;;;4.25;3.85;;;27.30;1.00;;;;;;5071965;28;19935;-76
2023/06/20 10:28:03;;;;;;;3.95;3.47;;;27.10;99.90;;;;;;5081988;28;20112;-79
2023/06/20 10:30:50;;;;;;;2.97;2.60;;;27.20;1.00;;;;;;5072973;28;20058;-79
2023/06/20 10:33:23;;;;;;;2.38;2.17;;;27.50;1.00;;;;;;5089280;28;20036;-79
2023/06/20 10:36:02;;;;;;;2.92;2.30;;;27.70;1.00;;;;;;5073632;28;20048;-79
2023/06/20 10:38:30;;;;;;;2.17;1.98;;;28.10;1.00;;;;;;5088652;28;20040;-80
2023/06/20 10:41:23;;;;;;;2.30;2.10;;;28.30;99.90;;;;;;5087982;28;20107;-79
2023/06/20 10:43:59;;;;;;;2.63;2.42;;;28.50;99.90;;;;;;5083940;28;20388;-76
2023/06/20 10:46:46;;;;;;;3.55;2.70;;;28.50;99.90;;;;;;5052397;28;20032;-76
2023/06/20 10:49:12;;;;;;;2.58;2.28;;;28.40;99.90;;;;;;5088337;28;20052;-78
2023/06/20 10:51:47;;;;;;;3.03;2.35;;;28.50;99.90;;;;;;5072101;28;20044;-78
2023/06/20 10:54:14;;;;;;;2.78;2.00;;;28.50;99.90;;;;;;5086761;28;20451;-77
2023/06/20 10:56:40;;;;;;;2.92;2.20;;;28.70;99.90;;;;;;5072215;28;20059;-79
2023/06/20 10:59:10;;;;;;;3.70;2.53;;;28.90;99.90;;;;;;5089247;28;20123;-77
2023/06/20 11:01:36;;;;;;;2.50;2.30;;;28.90;99.90;;;;;;5071999;28;20040;-77
2023/06/20 11:04:06;;;;;;;2.28;2.03;;;29.10;99.90;;;;;;5088909;28;20047;-78
2023/06/20 11:06:32;;;;;;;2.10;1.90;;;29.10;99.90;;;;;;5072467;28;20464;-77
2023/06/20 11:08:59;;;;;;;2.95;2.60;;;29.00;99.90;;;;;;5068857;28;20119;-77
2023/06/20 11:11:37;;;;;;;2.83;2.53;;;28.90;99.90;;;;;;5055428;28;20150;-77
2023/06/20 11:14:10;;;;;;;2.70;2.45;;;28.80;99.90;;;;;;5087521;28;20060;-78
2023/06/20 11:16:37;;;;;;;2.72;2.30;;;28.90;99.90;;;;;;5072165;28;20040;-78
2023/06/20 11:19:03;;;;;;;3.25;2.33;;;29.00;99.90;;;;;;5071534;28;20032;-77
2023/06/20 11:21:28;;;;;;;2.50;2.00;;;29.10;99.90;;;;;;5089176;28;20754;-78
2023/06/20 11:23:59;;;;;;;2.38;2.00;;;29.20;99.90;;;;;;5088398;28;20503;-78
2023/06/20 11:26:32;;;;;;;2.60;2.40;;;29.40;99.90;;;;;;5071572;28;20082;-77
2023/06/20 11:29:03;;;;;;;2.92;2.30;;;29.20;99.90;;;;;;5070279;28;20517;-78
2023/06/20 11:31:30;;;;;;;2.60;2.40;;;29.40;99.90;;;;;;5086763;28;20538;-77
2023/06/20 11:34:03;;;;;;;3.63;2.00;;;29.50;95.70;;;;;;5087314;28;20063;-77
2023/06/20 11:36:31;;;;;;;2.10;1.90;;;29.70;99.90;;;;;;5071176;28;20039;-77
2023/06/20 11:38:59;;;;;;;2.03;1.83;;;29.80;84.40;;;;;;5088259;28;20068;-78
2023/06/20 11:41:31;;;;;;;3.75;2.80;;;29.80;82.00;;;;;;5087726;28;20038;-78
2023/06/20 11:43:58;;;;;;;3.38;3.08;;;29.70;94.50;;;;;;5087151;28;20043;-77
2023/06/20 11:46:24;;;;;;;2.47;2.28;;;29.60;72.30;;;;;;5088993;28;20036;-78
2023/06/20 11:48:52;;;;;;;2.75;2.08;;;29.70;96.20;;;;;;5070794;28;20040;-77
2023/06/20 11:51:21;;;;;;;1.80;1.70;;;29.90;99.90;;;;;;5071451;28;20120;-77
2023/06/20 11:53:58;;;;;;;2.60;2.17;;;30.20;97.80;;;;;;5100659;28;20043;-77
2023/06/20 11:56:24;;;;;;;2.88;2.17;;;30.30;99.90;;;;;;5071919;28;20032;-77
2023/06/20 11:58:52;;;;;;;4.80;2.70;;;30.40;44.20;;;;;;5087570;28;20339;-78
2023/06/20 12:01:20;;;;;;;2.28;2.08;;;30.10;45.50;;;;;;5094800;28;20066;-78
2023/06/20 12:04:05;;;;;;;2.22;2.03;;;30.10;57.70;;;;;;5095144;28;20419;-78
2023/06/20 12:06:39;;;;;;;2.47;2.10;;;29.80;59.90;;;;;;5090178;28;20097;-77
2023/06/20 12:09:11;;;;;;;2.60;2.20;;;29.80;54.00;;;;;;5099187;28;20065;-78
2023/06/20 12:11:46;;;;;;;2.78;2.55;;;29.90;47.60;;;;;;5086373;28;20040;-78
2023/06/20 12:14:12;;;;;;;3.25;2.90;;;29.90;36.10;;;;;;5100699;28;20539;-77
2023/06/20 12:16:38;;;;;;;2.95;2.60;;;29.90;70.20;;;;;;5096921;28;20077;-77
2023/06/20 12:19:03;;;;;;;2.70;2.50;;;30.10;60.10;;;;;;5092903;28;20119;-77
2023/06/20 12:21:29;;;;;;;4.18;3.00;;;29.80;43.40;;;;;;5089210;28;20039;-77
2023/06/20 12:23:55;;;;;;;2.80;2.60;;;29.60;49.50;;;;;;5095906;28;20044;-77
2023/06/20 12:26:22;;;;;;;2.58;2.38;;;29.70;79.10;;;;;;5086823;28;20048;-78
2023/06/20 12:28:47;;;;;;;2.47;2.28;;;29.70;57.30;;;;;;5089990;28;20036;-78
2023/06/20 12:31:14;;;;;;;2.28;2.08;;;29.90;72.50;;;;;;5071845;28;20058;-77
2023/06/20 12:33:40;;;;;;;2.50;2.30;;;30.20;67.10;;;;;;5059542;28;20458;-77
2023/06/20 12:36:06;;;;;;;5.22;2.47;;;30.30;44.10;;;;;;5088923;28;20154;-78
2023/06/20 12:38:32;;;;;;;2.25;1.90;;;29.90;33.70;;;;;;5086606;28;20386;-78
2023/06/20 12:40:58;;;;;;;2.55;2.35;;;30.20;68.90;;;;;;5089944;28;20042;-78
2023/06/20 12:43:24;;;;;;;2.40;2.20;;;30.20;57.80;;;;;;5070175;28;20059;-78
2023/06/20 12:45:50;;;;;;;3.42;2.10;;;30.10;29.20;;;;;;5088707;28;20543;-78
2023/06/20 12:48:15;;;;;;;2.90;2.60;;;30.10;2.30;;;;;;5095730;28;20130;-78
2023/06/20 12:50:42;;;;;;;2.40;2.20;;;30.10;1.00;;;;;;5107228;28;20032;-77
2023/06/20 12:53:08;;;;;;;2.50;2.30;;;30.20;1.00;;;;;;5106544;28;20104;-77
2023/06/20 12:55:33;;;;;;;2.05;1.88;;;30.20;1.00;;;;;;5072303;28;20044;-78
2023/06/20 12:57:59;;;;;;;2.00;1.80;;;30.50;1.00;;;;;;5058298;28;21462;-77
2023/06/20 13:00:28;;;;;;;2.50;2.10;;;30.60;1.00;;;;;;5099826;28;20109;-77
2023/06/20 13:02:53;;;;;;;1.92;1.80;;;30.30;1.00;;;;;;5092796;28;20050;-77
2023/06/20 13:05:19;;;;;;;2.28;2.08;;;30.10;1.00;;;;;;5096000;28;20036;-77